Santa Elena, Venezuela
Current Conditions -  °F | °C
As of 1:00 AM on Sunday 23 Nov 2014 (Local Time) from SBBV Reporting Station
Thunderstorm Thunderstorm  
Wind Chill: 72°   Ceiling: 700
Heat Index: 72°   Visibility: 2.5mi
Dew Point: 70°   Wind: 7mph
Humidity: 94%   Direction: 50°NE
Pressure: 29.85"   Gusts: NA
Location:  4.68°N, 61.18°W
Report Text: SBBV 230500Z 05006KT 4000 -TSRA BKN007 FEW030CB 22/21 Q1011
Loading
Personal Weather Stations






























Interactive Weather Map New forecast layout! Learn more

10-Day Weather Forecast

Advertisements
Track Severe Weather on mobile